Time;durP1;ratioP1;P1;durP2;ratioP2;P2;SDS_P1;SDS_P2;PMS_P1;PMS_P2;Temp;Humidity;BMP_temperature;BMP_pressure;BME280_temperature;BME280_humidity;BME280_pressure;Samples;Min_cycle;Max_cycle;Signal;HPM_P1;HPM_P2
2023/10/31 00:01:12;;;;;;;1.23;0.10;;;;;;;12.84;83.67;95164.31;6161360;23;20021;-83
2023/10/31 00:03:40;;;;;;;0.38;0.20;;;;;;;12.82;83.12;95158.50;6161344;23;20022;-83
2023/10/31 00:06:08;;;;;;;1.08;0.30;;;;;;;12.80;82.81;95150.09;6163089;23;20057;-78
2023/10/31 00:08:35;;;;;;;0.40;0.25;;;;;;;12.79;82.56;95149.31;6161339;23;20025;-81
2023/10/31 00:11:03;;;;;;;0.20;0.20;;;;;;;12.80;83.97;95147.47;6130556;23;20049;-79
2023/10/31 01:13:17;;;;;;;0.13;0.13;;;;;;;12.78;86.81;95158.16;6178611;22;20024;-79
2023/10/31 01:15:45;;;;;;;0.40;0.20;;;;;;;12.79;87.52;95162.38;6158989;23;20080;-81
2023/10/31 01:18:13;;;;;;;0.38;0.10;;;;;;;12.76;85.22;95162.81;6157482;23;20064;-81
2023/10/31 01:20:40;;;;;;;2.00;0.40;;;;;;;12.75;86.25;95163.88;6157154;23;20053;-81
2023/10/31 01:23:08;;;;;;;0.40;0.20;;;;;;;12.75;85.76;95169.91;6156522;23;20104;-81
2023/10/31 01:25:36;;;;;;;0.38;0.38;;;;;;;12.76;85.64;95163.63;6159186;23;20041;-80
2023/10/31 01:28:03;;;;;;;0.20;0.15;;;;;;;12.76;86.11;95171.47;6168311;23;20025;-83
2023/10/31 01:30:33;;;;;;;0.30;0.30;;;;;;;12.78;87.33;95185.13;6168724;23;20032;-84
2023/10/31 01:33:00;;;;;;;0.30;0.20;;;;;;;12.76;86.55;95187.16;6168220;23;20053;-80
2023/10/31 01:35:28;;;;;;;0.68;0.20;;;;;;;12.74;85.70;95199.69;6167268;23;20049;-81
2023/10/31 01:37:56;;;;;;;0.32;0.22;;;;;;;12.70;84.52;95193.34;6167300;23;20025;-81
2023/10/31 01:40:23;;;;;;;0.10;0.10;;;;;;;12.63;82.94;95186.63;6170816;23;20036;-84
2023/10/31 01:42:51;;;;;;;0.40;0.10;;;;;;;12.53;82.87;95184.59;6169768;23;20037;-80
2023/10/31 01:45:19;;;;;;;1.67;0.10;;;;;;;12.49;83.28;95199.16;6169089;23;20052;-79
2023/10/31 01:47:49;;;;;;;0.60;0.30;;;;;;;12.46;83.35;95204.81;6168361;23;20040;-80
2023/10/31 01:50:17;;;;;;;0.20;0.20;;;;;;;12.44;83.22;95212.91;6168257;23;20089;-80
2023/10/31 01:52:46;;;;;;;0.50;0.32;;;;;;;12.44;84.40;95219.94;6168424;23;20455;-83
2023/10/31 01:55:14;;;;;;;0.20;0.10;;;;;;;12.41;83.60;95212.56;6167642;23;20061;-82
2023/10/31 01:57:42;;;;;;;0.10;0.10;;;;;;;12.37;82.20;95214.81;6167666;23;20062;-80
2023/10/31 02:00:11;;;;;;;0.60;0.20;;;;;;;12.32;81.77;95223.34;6166927;23;20032;-80
2023/10/31 02:02:42;;;;;;;0.38;0.32;;;;;;;12.27;81.80;95233.69;6165870;23;20022;-80
2023/10/31 02:05:11;;;;;;;0.38;0.30;;;;;;;12.26;83.63;95234.69;6166248;23;20032;-76
2023/10/31 02:07:39;;;;;;;1.65;0.35;;;;;;;12.25;83.14;95238.34;6165078;23;20100;-79
2023/10/31 02:10:07;;;;;;;0.77;0.25;;;;;;;12.26;84.19;95249.59;6165074;23;20032;-79
2023/10/31 02:12:36;;;;;;;0.43;0.22;;;;;;;12.24;83.48;95252.44;6167655;23;20017;-79
2023/10/31 02:15:05;;;;;;;0.98;0.45;;;;;;;12.23;84.12;95260.53;6167784;23;20022;-80
2023/10/31 02:17:32;;;;;;;0.73;0.43;;;;;;;12.21;84.73;95267.78;6166317;23;20045;-80
2023/10/31 02:20:00;;;;;;;0.40;0.40;;;;;;;12.20;85.42;95272.22;6166600;23;20055;-78
2023/10/31 02:22:29;;;;;;;0.80;0.40;;;;;;;12.19;84.63;95270.63;6165513;23;20047;-82
2023/10/31 02:24:56;;;;;;;0.40;0.40;;;;;;;12.19;84.52;95282.91;6163898;23;20049;-78
2023/10/31 02:27:24;;;;;;;4.65;0.88;;;;;;;12.12;83.10;95294.25;6164817;23;20439;-81
2023/10/31 02:29:51;;;;;;;1.88;0.40;;;;;;;12.01;81.41;95295.00;6164443;23;20064;-79
2023/10/31 02:32:19;;;;;;;0.77;0.40;;;;;;;11.91;80.39;95290.31;6163916;23;20049;-79
2023/10/31 02:34:47;;;;;;;0.38;0.25;;;;;;;11.84;79.95;95283.56;6163315;23;20021;-78
2023/10/31 02:37:14;;;;;;;0.28;0.20;;;;;;;11.80;80.23;95272.75;6163718;23;20025;-78
2023/10/31 02:39:43;;;;;;;1.25;0.30;;;;;;;11.78;81.02;95281.81;6163174;23;20036;-82
2023/10/31 02:42:11;;;;;;;2.33;0.32;;;;;;;11.78;81.39;95285.22;6163466;23;20053;-79
2023/10/31 02:44:39;;;;;;;3.35;1.05;;;;;;;11.76;82.13;95284.66;6162730;23;20057;-78
2023/10/31 02:47:06;;;;;;;1.77;0.73;;;;;;;11.76;82.99;95287.25;6161619;23;20387;-79
2023/10/31 02:49:34;;;;;;;1.35;0.38;;;;;;;11.75;82.61;95290.91;6161831;23;20032;-82
2023/10/31 02:52:01;;;;;;;0.22;0.22;;;;;;;11.77;81.74;95299.31;6161252;23;20032;-78
2023/10/31 02:54:29;;;;;;;2.50;0.40;;;;;;;11.77;81.48;95286.25;6160681;23;20475;-78
2023/10/31 02:56:58;;;;;;;1.38;0.60;;;;;;;11.78;82.22;95285.22;6161107;23;20064;-79
2023/10/31 02:59:26;;;;;;;0.80;0.40;;;;;;;11.80;82.68;95288.41;6161983;23;20405;-78
2023/10/31 03:01:53;;;;;;;1.45;0.32;;;;;;;11.78;80.86;95295.69;6160670;23;20041;-79
2023/10/31 03:04:21;;;;;;;0.65;0.40;;;;;;;11.75;80.55;95290.91;6159959;23;20534;-79
2023/10/31 03:06:49;;;;;;;0.95;0.55;;;;;;;11.78;82.29;95290.44;6160265;23;20403;-78
2023/10/31 03:09:16;;;;;;;2.67;0.90;;;;;;;11.79;83.03;95291.28;6159454;23;20542;-78
2023/10/31 03:11:44;;;;;;;1.02;0.22;;;;;;;11.77;82.62;95288.06;6160242;23;20060;-80
2023/10/31 03:14:13;;;;;;;1.08;0.43;;;;;;;11.76;82.46;95297.72;6160545;23;20100;-78
2023/10/31 03:16:40;;;;;;;1.00;0.35;;;;;;;11.77;83.24;95298.53;6159869;23;20032;-79
2023/10/31 03:19:08;;;;;;;0.90;0.50;;;;;;;11.80;83.88;95303.31;6160990;23;20026;-78
2023/10/31 03:21:36;;;;;;;0.43;0.40;;;;;;;11.82;83.05;95301.25;6159766;23;20073;-79
2023/10/31 03:24:04;;;;;;;1.67;0.32;;;;;;;11.75;81.06;95304.75;6160166;23;20021;-78
2023/10/31 03:26:32;;;;;;;1.58;0.30;;;;;;;11.69;81.30;95303.03;6159077;23;20075;-77
2023/10/31 03:28:59;;;;;;;1.15;0.60;;;;;;;11.73;83.14;95298.16;6159905;23;20044;-80
2023/10/31 03:31:28;;;;;;;2.88;0.70;;;;;;;11.71;81.83;95303.59;6159778;23;20026;-76
2023/10/31 03:33:56;;;;;;;1.20;0.40;;;;;;;11.70;83.39;95302.00;6159787;23;20101;-77
2023/10/31 03:36:24;;;;;;;0.35;0.35;;;;;;;11.72;84.10;95302.59;6159541;23;20463;-78
2023/10/31 03:38:51;;;;;;;0.90;0.70;;;;;;;11.76;85.33;95300.31;6158356;23;20061;-79
2023/10/31 03:41:18;;;;;;;1.85;1.08;;;;;;;11.81;86.02;95299.69;6159631;23;20023;-79
2023/10/31 03:43:45;;;;;;;1.95;0.57;;;;;;;11.80;86.43;95309.31;6159327;23;20045;-77
2023/10/31 03:46:13;;;;;;;2.28;0.70;;;;;;;11.82;87.09;95312.50;6157868;23;20036;-79
2023/10/31 03:48:42;;;;;;;1.58;0.70;;;;;;;11.85;87.21;95309.47;6159043;23;20026;-79
2023/10/31 03:51:10;;;;;;;1.45;0.47;;;;;;;11.86;86.60;95318.09;6158525;23;20498;-80
2023/10/31 03:53:37;;;;;;;1.08;0.43;;;;;;;11.86;87.00;95313.66;6158715;23;20017;-78
2023/10/31 03:56:05;;;;;;;1.00;0.40;;;;;;;11.83;84.36;95327.19;6157983;23;20021;-78
2023/10/31 03:58:33;;;;;;;3.40;0.98;;;;;;;11.82;84.60;95315.13;6157957;23;20029;-80
2023/10/31 04:01:02;;;;;;;0.95;0.35;;;;;;;11.81;84.77;95329.22;6157915;23;20333;-78
2023/10/31 04:03:30;;;;;;;0.65;0.32;;;;;;;11.83;85.11;95335.03;6157660;23;20034;-78
2023/10/31 04:05:59;;;;;;;1.30;0.82;;;;;;;11.85;86.62;95338.22;6157917;23;20028;-77
2023/10/31 04:08:26;;;;;;;0.57;0.30;;;;;;;11.84;83.90;95341.03;6156909;23;20026;-78
2023/10/31 04:10:54;;;;;;;0.40;0.40;;;;;;;11.84;85.05;95339.22;6157355;23;20415;-78
2023/10/31 04:13:21;;;;;;;0.32;0.32;;;;;;;11.87;86.04;95335.34;6156083;23;20024;-78
2023/10/31 04:15:49;;;;;;;1.20;0.70;;;;;;;11.90;86.05;95334.97;6156619;23;20463;-78
2023/10/31 04:18:17;;;;;;;1.05;0.68;;;;;;;11.85;83.73;95333.00;6157218;23;20092;-79
2023/10/31 04:20:44;;;;;;;2.97;0.30;;;;;;;11.82;82.67;95335.22;6156916;23;20026;-79
2023/10/31 04:23:13;;;;;;;1.80;0.30;;;;;;;11.82;82.25;95337.84;6160849;23;20029;-82
2023/10/31 04:25:41;;;;;;;1.67;0.20;;;;;;;11.79;80.81;95339.09;6167501;23;20444;-84
2023/10/31 04:28:08;;;;;;;0.50;0.47;;;;;;;11.75;81.71;95332.69;6167618;23;20100;-81
2023/10/31 04:30:36;;;;;;;1.38;0.70;;;;;;;11.75;81.84;95332.69;6167785;23;20026;-78
2023/10/31 04:33:04;;;;;;;0.82;0.38;;;;;;;11.75;82.59;95343.16;6167954;23;20058;-81
2023/10/31 04:35:31;;;;;;;0.32;0.32;;;;;;;11.78;84.10;95347.94;6166660;23;20502;-82
2023/10/31 04:37:59;;;;;;;0.70;0.40;;;;;;;11.76;82.10;95344.72;6167134;23;20045;-81
2023/10/31 04:40:28;;;;;;;0.63;0.50;;;;;;;11.74;82.28;95341.53;6165570;23;20025;-78
2023/10/31 04:42:55;;;;;;;1.50;0.57;;;;;;;11.72;81.80;95344.41;6167050;23;20408;-82
2023/10/31 04:45:23;;;;;;;0.80;0.60;;;;;;;11.73;83.21;95339.97;6165763;23;20406;-82
2023/10/31 04:47:50;;;;;;;0.30;0.30;;;;;;;11.73;82.02;95339.97;6166783;23;20025;-79
2023/10/31 04:50:18;;;;;;;0.70;0.70;;;;;;;11.72;83.12;95346.22;6165081;23;20363;-80
2023/10/31 04:52:46;;;;;;;1.00;0.60;;;;;;;11.73;83.67;95350.41;6166768;23;20028;-82
2023/10/31 04:55:13;;;;;;;0.40;0.40;;;;;;;11.69;81.67;95354.47;6165651;23;20076;-82
2023/10/31 04:57:46;;;;;;;1.58;1.10;;;;;;;11.66;81.11;95347.88;6166311;23;20025;-82
2023/10/31 05:00:14;;;;;;;2.22;1.60;;;;;;;11.65;81.53;95353.31;6165884;23;20061;-79
2023/10/31 05:02:42;;;;;;;1.73;1.05;;;;;;;11.66;83.00;95352.31;6164627;23;20025;-82
2023/10/31 05:05:09;;;;;;;1.85;0.85;;;;;;;11.63;80.82;95360.56;6164257;23;20091;-79
2023/10/31 05:07:37;;;;;;;2.35;0.40;;;;;;;11.59;79.92;95365.44;6165202;23;20021;-82
2023/10/31 05:10:06;;;;;;;2.30;0.70;;;;;;;11.58;80.66;95361.22;6163119;23;20104;-80
2023/10/31 05:12:34;;;;;;;0.28;0.28;;;;;;;11.56;80.15;95360.63;6162598;23;20499;-78
2023/10/31 05:15:03;;;;;;;0.40;0.40;;;;;;;11.53;79.31;95359.25;6161299;23;20052;-81
2023/10/31 05:17:31;;;;;;;0.88;0.40;;;;;;;11.51;79.22;95361.28;6163733;23;20063;-83
2023/10/31 05:19:58;;;;;;;1.27;0.40;;;;;;;11.50;79.72;95370.16;6165186;23;20029;-80
2023/10/31 05:22:26;;;;;;;1.98;0.30;;;;;;;11.49;80.00;95359.91;6163954;23;20025;-78
2023/10/31 05:24:54;;;;;;;0.45;0.30;;;;;;;11.50;79.65;95364.94;6164895;23;20029;-78
2023/10/31 05:27:21;;;;;;;2.72;0.50;;;;;;;11.47;79.06;95365.34;6164375;23;20487;-78
2023/10/31 05:29:49;;;;;;;0.50;0.50;;;;;;;11.45;81.51;95372.59;6164002;23;20113;-81
2023/10/31 05:32:17;;;;;;;0.30;0.30;;;;;;;11.47;83.54;95375.81;6162759;23;20056;-81
2023/10/31 05:34:45;;;;;;;0.32;0.32;;;;;;;11.49;82.55;95380.81;6165400;23;20022;-80
2023/10/31 05:37:13;;;;;;;0.22;0.22;;;;;;;11.48;81.86;95390.47;6165279;23;20341;-80
2023/10/31 05:39:40;;;;;;;1.17;0.50;;;;;;;11.51;82.49;95384.81;6165442;23;20032;-81
2023/10/31 05:42:08;;;;;;;1.65;0.50;;;;;;;11.49;83.02;95386.81;6164916;23;20025;-80
2023/10/31 05:44:36;;;;;;;0.82;0.40;;;;;;;11.49;84.54;95392.06;6162249;23;20539;-79
2023/10/31 05:47:04;;;;;;;0.30;0.30;;;;;;;11.49;82.20;95391.25;6162859;23;20044;-85
2023/10/31 05:49:33;;;;;;;0.70;0.30;;;;;;;11.45;80.13;95396.09;6160669;23;20013;-77
2023/10/31 05:52:00;;;;;;;0.38;0.38;;;;;;;11.45;80.11;95403.94;6160219;23;20097;-81
2023/10/31 05:54:28;;;;;;;1.40;0.60;;;;;;;11.46;82.11;95402.94;6160912;23;20104;-78
2023/10/31 05:56:56;;;;;;;2.15;0.47;;;;;;;11.46;82.80;95413.38;6158167;23;20018;-78
2023/10/31 05:59:23;;;;;;;0.43;0.40;;;;;;;11.48;83.67;95421.00;6156722;23;20021;-77
2023/10/31 06:01:51;;;;;;;1.55;0.30;;;;;;;11.46;82.94;95429.06;6157820;23;20483;-76
2023/10/31 06:04:18;;;;;;;1.55;0.77;;;;;;;11.48;82.95;95429.63;6158963;23;20037;-78
2023/10/31 06:06:47;;;;;;;0.60;0.60;;;;;;;11.46;83.52;95429.06;6156255;23;20057;-77
2023/10/31 06:09:15;;;;;;;0.25;0.20;;;;;;;11.46;81.49;95428.25;6156553;23;20034;-76
2023/10/31 06:11:44;;;;;;;0.55;0.20;;;;;;;11.42;80.89;95446.16;6156788;23;20026;-77
2023/10/31 06:14:11;;;;;;;0.50;0.28;;;;;;;11.43;80.96;95452.97;6157003;23;20305;-76
2023/10/31 06:16:43;;;;;;;0.70;0.47;;;;;;;11.44;81.12;95470.25;6156547;23;20031;-76
2023/10/31 06:19:11;;;;;;;0.85;0.40;;;;;;;11.44;81.00;95465.03;6156766;23;20072;-77
2023/10/31 06:21:38;;;;;;;0.38;0.38;;;;;;;11.42;80.10;95464.44;6157529;23;20053;-76
2023/10/31 06:24:08;;;;;;;0.50;0.30;;;;;;;11.42;81.76;95463.66;6158103;23;20056;-76
2023/10/31 06:26:36;;;;;;;0.50;0.50;;;;;;;11.43;80.00;95466.03;6157395;23;20057;-76
2023/10/31 06:29:04;;;;;;;0.57;0.47;;;;;;;11.44;80.72;95469.47;6157223;23;20021;-77
2023/10/31 06:31:52;;;;;;;0.47;0.32;;;;;;;11.44;81.01;95472.06;6157697;23;20032;-77
2023/10/31 06:34:19;;;;;;;1.45;0.70;;;;;;;11.45;80.79;95479.66;6157625;23;20018;-76
2023/10/31 06:36:47;;;;;;;0.55;0.50;;;;;;;11.44;80.17;95483.31;6157796;23;20101;-77
2023/10/31 06:39:16;;;;;;;2.00;0.80;;;;;;;11.45;82.69;95482.28;6157830;23;20120;-77
2023/10/31 06:41:43;;;;;;;1.85;0.52;;;;;;;11.50;84.00;95489.47;6158583;23;20109;-76
2023/10/31 06:44:11;;;;;;;1.08;0.60;;;;;;;11.51;84.15;95498.91;6157739;23;20049;-77
2023/10/31 06:46:38;;;;;;;1.98;1.13;;;;;;;11.52;84.90;95503.94;6157913;23;20021;-77
2023/10/31 06:49:06;;;;;;;2.65;0.85;;;;;;;11.53;84.25;95496.88;6158786;23;20025;-76
2023/10/31 06:51:33;;;;;;;0.70;0.50;;;;;;;11.52;83.21;95500.50;6158347;23;20053;-77
2023/10/31 06:54:01;;;;;;;3.55;0.85;;;;;;;11.49;81.03;95498.31;6158127;23;20089;-77
2023/10/31 06:56:30;;;;;;;2.00;0.60;;;;;;;11.48;81.83;95505.38;6157792;23;20063;-79
2023/10/31 06:58:57;;;;;;;0.55;0.30;;;;;;;11.48;80.70;95513.19;6157600;23;20096;-76
2023/10/31 07:01:26;;;;;;;1.40;0.63;;;;;;;11.49;81.76;95514.00;6158282;23;20027;-80
2023/10/31 07:03:54;;;;;;;0.40;0.40;;;;;;;11.50;82.83;95507.75;6158036;23;20021;-76
2023/10/31 07:06:22;;;;;;;1.15;0.40;;;;;;;11.49;82.99;95512.19;6157379;23;20483;-76
2023/10/31 07:08:49;;;;;;;0.47;0.30;;;;;;;11.49;83.54;95506.94;6157100;23;20411;-76
2023/10/31 07:11:17;;;;;;;0.55;0.40;;;;;;;11.49;81.50;95512.19;6157852;23;20108;-76
2023/10/31 07:13:46;;;;;;;2.28;0.50;;;;;;;11.47;79.87;95519.41;6156992;23;20026;-76
2023/10/31 07:16:13;;;;;;;2.05;0.30;;;;;;;11.47;81.09;95523.84;6156831;23;20479;-77
2023/10/31 07:18:41;;;;;;;0.40;0.30;;;;;;;11.47;81.63;95523.84;6156906;23;20033;-78
2023/10/31 07:21:09;;;;;;;1.13;0.50;;;;;;;11.46;82.32;95522.28;6157331;23;20025;-76
2023/10/31 07:23:36;;;;;;;1.08;0.40;;;;;;;11.46;82.33;95533.50;6157797;23;20109;-76
2023/10/31 07:26:06;;;;;;;0.28;0.28;;;;;;;11.44;80.42;95535.53;6155706;23;20030;-80
2023/10/31 07:28:34;;;;;;;0.40;0.20;;;;;;;11.42;80.13;95536.75;6157301;23;20029;-80
2023/10/31 07:31:04;;;;;;;1.13;0.40;;;;;;;11.40;79.82;95531.75;6156263;23;20021;-80
2023/10/31 07:33:34;;;;;;;1.40;0.35;;;;;;;11.40;79.49;95531.75;6155851;23;20021;-80
2023/10/31 07:36:04;;;;;;;0.65;0.30;;;;;;;11.41;78.00;95527.31;6155810;23;20100;-80
2023/10/31 07:38:35;;;;;;;0.85;0.45;;;;;;;11.36;77.20;95540.22;6156119;23;20494;-80
2023/10/31 07:41:06;;;;;;;0.60;0.30;;;;;;;11.37;79.36;95550.44;6126590;23;20464;-80
2023/10/31 07:43:37;;;;;;;0.30;0.20;;;;;;;11.38;79.35;95549.44;6126760;23;20412;-80
2023/10/31 07:46:08;;;;;;;0.80;0.30;;;;;;;11.39;78.03;95558.88;6126614;23;20018;-80
2023/10/31 07:48:38;;;;;;;0.30;0.30;;;;;;;11.38;78.43;95570.31;6126440;23;20022;-80
2023/10/31 07:51:11;;;;;;;;;;;;;;;11.43;79.42;95574.91;6126872;23;20033;-80
2023/10/31 07:53:46;;;;;;;0.90;0.30;;;;;;;11.40;76.43;95565.69;6126972;23;20267;-81
2023/10/31 07:56:18;;;;;;;1.15;0.50;;;;;;;11.38;77.99;95569.53;6126914;23;20029;-80
2023/10/31 07:58:51;;;;;;;1.60;0.63;;;;;;;11.36;76.18;95569.72;6146183;23;20050;-81
2023/10/31 08:01:27;;;;;;;0.98;0.40;;;;;;;11.36;76.05;95566.31;6145312;23;20026;-80
2023/10/31 08:03:59;;;;;;;0.40;0.25;;;;;;;11.33;75.33;95565.72;6133219;23;20073;-80
2023/10/31 08:06:33;;;;;;;0.32;0.28;;;;;;;11.32;78.00;95571.16;6127654;23;20024;-80
2023/10/31 08:09:05;;;;;;;3.65;0.30;;;;;;;11.35;78.66;95578.59;6127362;23;20466;-80
2023/10/31 08:11:38;;;;;;;0.50;0.50;;;;;;;11.38;78.15;95582.56;6126261;23;20081;-80
2023/10/31 08:14:13;;;;;;;0.70;0.50;;;;;;;11.38;77.88;95583.38;6126603;23;20397;-80
2023/10/31 08:16:49;;;;;;;1.83;0.88;;;;;;;11.39;76.99;95579.78;6126356;23;20337;-80
2023/10/31 08:19:20;;;;;;;0.45;0.30;;;;;;;11.41;78.21;95588.16;6126407;23;20101;-80
2023/10/31 08:21:51;;;;;;;0.70;0.63;;;;;;;11.42;77.50;95581.16;6126514;23;20032;-80
2023/10/31 08:24:27;;;;;;;2.38;0.43;;;;;;;11.42;77.39;95589.78;6125748;23;20252;-80
2023/10/31 08:27:02;;;;;;;2.58;0.60;;;;;;;11.47;77.65;95589.94;6126119;23;20076;-80
2023/10/31 08:29:36;;;;;;;1.17;0.40;;;;;;;11.48;76.48;95594.16;6126334;23;20022;-80
2023/10/31 08:32:12;;;;;;;1.10;0.32;;;;;;;11.51;78.60;95588.50;6126377;23;20054;-80
2023/10/31 08:34:48;;;;;;;2.55;0.60;;;;;;;11.54;77.67;95592.50;6126251;23;20093;-80
2023/10/31 08:37:21;;;;;;;0.75;0.50;;;;;;;11.57;78.32;95588.66;6125991;23;20022;-80
2023/10/31 08:39:54;;;;;;;0.38;0.38;;;;;;;11.58;76.13;95592.88;6141521;23;20022;-80
2023/10/31 08:42:28;;;;;;;1.42;0.30;;;;;;;11.58;77.10;95595.50;6123082;23;20048;-80
2023/10/31 08:45:00;;;;;;;;;;;;;;;11.62;77.82;95596.66;6124098;23;20356;-80
2023/10/31 08:47:36;;;;;;;1.30;0.60;;;;;;;11.61;75.79;95595.06;6125820;23;19921;-80
2023/10/31 08:50:10;;;;;;;1.02;0.40;;;;;;;11.62;78.24;95589.63;6126493;23;20077;-80
2023/10/31 08:52:44;;;;;;;1.42;0.65;;;;;;;11.62;76.39;95583.59;6126394;23;20105;-80
2023/10/31 08:55:20;;;;;;;2.58;0.98;;;;;;;11.62;75.17;95605.31;6125831;23;20068;-80
2023/10/31 08:57:53;;;;;;;1.63;0.43;;;;;;;11.64;74.54;95594.66;6127056;23;20029;-80
2023/10/31 09:00:28;;;;;;;0.52;0.47;;;;;;;11.68;74.81;95598.44;6126932;23;20026;-80
2023/10/31 09:03:04;;;;;;;1.10;0.77;;;;;;;11.71;74.88;95600.63;6125654;23;20033;-79
2023/10/31 09:05:37;;;;;;;1.17;0.60;;;;;;;11.76;75.11;95600.75;6125881;23;20030;-80
2023/10/31 09:08:12;;;;;;;5.32;0.90;;;;;;;11.77;73.88;95594.53;6125449;23;20021;-80
2023/10/31 09:10:46;;;;;;;2.38;1.58;;;;;;;11.84;74.30;95600.50;6124403;23;20022;-80
2023/10/31 09:13:24;;;;;;;2.25;0.65;;;;;;;11.90;72.52;95598.88;6126362;23;20028;-80
2023/10/31 09:16:08;;;;;;;1.17;0.65;;;;;;;11.97;74.82;95597.00;6125845;23;20032;-80
2023/10/31 09:18:48;;;;;;;1.60;1.23;;;;;;;12.02;76.34;95596.38;6125977;23;20037;-80
2023/10/31 09:21:22;;;;;;;1.73;1.02;;;;;;;12.02;73.94;95591.94;6126090;23;20480;-80
2023/10/31 09:23:59;;;;;;;2.15;1.20;;;;;;;12.02;75.14;95593.75;6125577;23;20037;-79
2023/10/31 09:26:33;;;;;;;4.50;1.17;;;;;;;12.05;73.55;95585.50;6125658;23;20022;-80
2023/10/31 09:29:07;;;;;;;2.30;1.35;;;;;;;12.06;72.88;95594.91;6124334;23;20026;-80
2023/10/31 09:34:45;;;;;;;1.20;0.63;;;;;;;12.07;74.19;95602.56;6125785;23;20022;-80
2023/10/31 09:37:21;;;;;;;2.08;0.68;;;;;;;12.08;72.56;95592.91;6126043;23;20021;-80
2023/10/31 09:40:02;;;;;;;1.15;0.60;;;;;;;12.09;72.69;95594.47;6126597;23;20025;-80
2023/10/31 09:42:39;;;;;;;0.95;0.40;;;;;;;12.14;73.16;95603.28;6126991;23;20057;-80
2023/10/31 09:45:18;;;;;;;3.28;0.70;;;;;;;12.20;73.03;95606.88;6128485;23;20051;-80
2023/10/31 09:47:52;;;;;;;0.82;0.47;;;;;;;12.22;71.28;95614.47;6128364;23;20093;-80
2023/10/31 09:50:34;;;;;;;1.95;0.70;;;;;;;12.19;71.29;95613.09;6127686;23;20033;-80
2023/10/31 09:53:08;;;;;;;0.90;0.43;;;;;;;12.20;70.73;95616.50;6127348;23;20021;-80
2023/10/31 09:55:45;;;;;;;2.22;0.60;;;;;;;12.24;70.20;95621.09;6125693;23;20018;-80
2023/10/31 09:58:26;;;;;;;1.35;0.82;;;;;;;12.29;72.72;95623.06;6127501;23;20024;-80
2023/10/31 10:01:04;;;;;;;1.67;0.73;;;;;;;12.41;70.98;95623.16;6127445;23;20022;-80
2023/10/31 10:03:39;;;;;;;1.55;0.52;;;;;;;12.48;70.06;95629.91;6127894;23;20392;-80
2023/10/31 10:06:21;;;;;;;3.17;0.63;;;;;;;12.54;70.55;95629.03;6127003;23;20523;-79
2023/10/31 10:08:53;;;;;;;0.90;0.40;;;;;;;12.61;70.13;95631.56;6127709;23;20075;-80
2023/10/31 10:11:57;;;;;;;1.38;0.77;;;;;;;12.66;69.69;95642.19;6127613;23;20044;-79
2023/10/31 10:14:36;;;;;;;1.27;0.45;;;;;;;12.63;69.50;95642.63;6127406;23;20044;-80
2023/10/31 10:17:24;;;;;;;2.45;0.50;;;;;;;12.58;70.40;95655.56;6126724;23;20045;-80
2023/10/31 10:20:10;;;;;;;1.70;0.73;;;;;;;12.57;68.60;95654.78;6127321;23;20371;-80
2023/10/31 10:22:47;;;;;;;1.42;0.50;;;;;;;12.64;71.16;95649.47;6127871;23;20025;-79
2023/10/31 10:25:28;;;;;;;2.15;0.45;;;;;;;12.71;69.59;95655.41;6126978;23;20420;-79
2023/10/31 10:28:16;;;;;;;1.85;0.60;;;;;;;12.77;69.64;95659.78;6127221;23;20024;-80
2023/10/31 10:31:07;;;;;;;2.10;0.30;;;;;;;12.87;67.23;95663.72;6127501;23;20033;-79
2023/10/31 10:33:54;;;;;;;3.38;1.20;;;;;;;12.92;67.10;95667.28;6126357;23;20515;-80
2023/10/31 10:39:36;;;;;;;1.35;0.40;;;;;;;13.19;65.33;95672.97;6126785;23;20460;-79
2023/10/31 10:42:31;;;;;;;4.35;0.52;;;;;;;13.26;68.71;95678.13;6127114;23;20097;-80
2023/10/31 10:54:15;;;;;;;3.92;0.90;;;;;;;13.12;66.08;95680.13;6173226;23;20156;-80
2023/10/31 10:56:55;;;;;;;1.05;0.60;;;;;;;13.09;65.49;95688.41;6156493;23;20060;-79
2023/10/31 10:59:36;;;;;;;1.50;0.55;;;;;;;13.10;65.29;95678.75;6156437;23;20057;-79
2023/10/31 11:02:06;;;;;;;2.95;0.57;;;;;;;13.13;69.94;95681.72;6155964;23;20037;-79
2023/10/31 11:04:35;;;;;;;2.25;0.80;;;;;;;13.15;69.21;95676.25;6155709;23;20096;-79
2023/10/31 11:07:04;;;;;;;2.67;0.90;;;;;;;13.15;67.21;95684.91;6155572;23;20028;-79
2023/10/31 11:09:33;;;;;;;1.70;0.60;;;;;;;13.11;68.06;95685.56;6155630;23;20024;-79
2023/10/31 11:12:03;;;;;;;2.60;1.23;;;;;;;13.07;66.93;95687.81;6156013;23;20021;-79
2023/10/31 11:14:33;;;;;;;1.90;0.73;;;;;;;13.05;70.35;95687.25;6155821;23;20040;-79
2023/10/31 11:17:08;;;;;;;2.15;0.93;;;;;;;13.08;69.12;95696.50;6155492;23;20014;-79
2023/10/31 11:19:37;;;;;;;2.22;0.80;;;;;;;13.04;68.27;95684.88;6155549;23;20097;-80
2023/10/31 11:22:07;;;;;;;2.17;0.85;;;;;;;13.04;70.75;95696.13;6166069;23;20407;-79
2023/10/31 11:24:38;;;;;;;2.08;0.80;;;;;;;13.05;70.12;95687.25;6175369;23;20026;-79
2023/10/31 11:27:08;;;;;;;1.48;0.65;;;;;;;13.09;68.48;95687.63;6168176;23;20122;-79
2023/10/31 11:29:38;;;;;;;2.35;0.98;;;;;;;13.12;67.75;95688.00;6156456;23;20064;-79
2023/10/31 11:32:10;;;;;;;3.42;1.05;;;;;;;13.16;72.73;95691.78;6156414;23;20024;-79
2023/10/31 11:34:40;;;;;;;3.70;0.82;;;;;;;13.20;69.48;95700.75;6155743;23;20018;-79
2023/10/31 11:37:34;;;;;;;2.13;0.60;;;;;;;13.23;72.00;95706.56;6155194;23;20479;-79
2023/10/31 11:40:21;;;;;;;0.75;0.65;;;;;;;13.22;69.48;95697.13;6152091;23;20025;-79
2023/10/31 11:42:54;;;;;;;2.45;0.75;;;;;;;13.20;73.20;95706.00;6155383;23;20333;-80
2023/10/31 11:45:30;;;;;;;1.20;0.50;;;;;;;13.19;68.73;95709.66;6155384;23;20067;-79
2023/10/31 11:47:59;;;;;;;2.35;0.60;;;;;;;13.17;71.67;95710.88;6156442;23;20025;-79
2023/10/31 11:50:27;;;;;;;3.47;0.60;;;;;;;13.13;70.62;95718.38;6155337;23;20024;-79
2023/10/31 11:53:05;;;;;;;1.70;0.55;;;;;;;13.09;69.56;95725.06;6155324;23;20024;-79
2023/10/31 11:55:36;;;;;;;1.70;0.68;;;;;;;13.02;69.18;95713.88;6155686;23;20025;-79
2023/10/31 11:58:25;;;;;;;2.40;0.70;;;;;;;12.99;73.62;95720.34;6155029;23;20029;-79
2023/10/31 12:01:03;;;;;;;3.67;0.80;;;;;;;12.98;69.65;95716.13;6154877;23;20045;-79
2023/10/31 12:03:38;;;;;;;2.70;0.70;;;;;;;13.05;68.56;95717.88;6155300;23;20017;-79
2023/10/31 12:06:08;;;;;;;2.03;0.80;;;;;;;13.24;71.79;95713.44;6155039;23;20021;-80
2023/10/31 12:08:39;;;;;;;1.67;0.90;;;;;;;13.50;72.02;95718.34;6156882;23;20026;-79
2023/10/31 12:11:10;;;;;;;3.33;0.88;;;;;;;13.75;70.32;95713.00;6157057;23;20025;-80
2023/10/31 12:13:42;;;;;;;2.22;0.80;;;;;;;13.98;68.99;95717.50;6157468;23;20017;-79
2023/10/31 12:16:12;;;;;;;2.10;1.00;;;;;;;14.17;69.36;95712.97;6154977;23;20456;-79
2023/10/31 12:18:40;;;;;;;2.70;0.80;;;;;;;14.28;67.79;95713.19;6155852;23;20022;-79
2023/10/31 12:21:10;;;;;;;2.08;0.60;;;;;;;14.35;67.62;95722.56;6155362;23;20069;-79
2023/10/31 12:23:38;;;;;;;2.50;0.60;;;;;;;14.38;68.29;95721.31;6155491;23;20087;-79
2023/10/31 12:26:06;;;;;;;1.73;0.98;;;;;;;14.42;67.22;95707.50;6154876;23;20021;-79
2023/10/31 12:28:37;;;;;;;1.88;0.55;;;;;;;14.52;65.94;95721.88;6155722;23;20034;-79
2023/10/31 12:31:07;;;;;;;1.58;0.30;;;;;;;14.61;64.71;95712.69;6155313;23;20017;-80
2023/10/31 12:33:36;;;;;;;2.95;0.47;;;;;;;14.69;64.16;95717.59;6155285;23;20084;-80
2023/10/31 12:36:05;;;;;;;1.30;0.93;;;;;;;14.72;63.42;95711.91;6155329;23;20021;-79
2023/10/31 12:38:34;;;;;;;1.75;0.38;;;;;;;14.76;65.71;95718.28;6154926;23;20255;-79
2023/10/31 12:41:03;;;;;;;3.42;0.82;;;;;;;14.73;62.60;95716.09;6155122;23;20041;-80
2023/10/31 12:43:31;;;;;;;1.40;0.47;;;;;;;14.68;62.63;95721.25;6154899;23;20024;-79
2023/10/31 12:45:59;;;;;;;1.30;0.40;;;;;;;14.67;66.06;95716.22;6155048;23;20088;-79
2023/10/31 12:48:29;;;;;;;0.88;0.50;;;;;;;14.69;67.21;95716.78;6155616;23;20527;-80
2023/10/31 12:51:09;;;;;;;2.17;0.65;;;;;;;14.67;65.98;95718.84;6154970;23;20092;-79
2023/10/31 12:53:37;;;;;;;3.05;0.47;;;;;;;14.62;63.75;95712.44;6155041;23;20096;-79
2023/10/31 12:56:05;;;;;;;0.30;0.30;;;;;;;14.56;63.65;95713.38;6154796;23;20022;-79
2023/10/31 12:58:34;;;;;;;3.10;0.57;;;;;;;14.54;67.09;95709.34;6160825;23;20025;-79
2023/10/31 13:01:02;;;;;;;1.02;0.35;;;;;;;14.52;64.78;95714.00;6160608;23;20025;-81
2023/10/31 13:03:31;;;;;;;2.42;0.65;;;;;;;14.46;63.66;95710.50;6155371;23;20091;-79
2023/10/31 13:05:58;;;;;;;1.15;0.60;;;;;;;14.45;63.90;95708.88;6155234;23;20025;-79